sensor_id;sensor_type;location;lat;lon;timestamp;P1;durP1;ratioP1;P2;durP2;ratioP2
73869;SDS011;64924;42.140;24.762;2023-04-24T00:01:14;14.50;;;7.63;;
73869;SDS011;64924;42.140;24.762;2023-04-24T00:03:42;14.73;;;7.88;;
73869;SDS011;64924;42.140;24.762;2023-04-24T00:06:07;12.02;;;7.85;;
73869;SDS011;64924;42.140;24.762;2023-04-24T00:08:34;15.27;;;8.70;;
73869;SDS011;64924;42.140;24.762;2023-04-24T00:11:00;15.05;;;7.85;;
73869;SDS011;64924;42.140;24.762;2023-04-24T00:13:26;16.73;;;8.38;;
73869;SDS011;64924;42.140;24.762;2023-04-24T00:15:53;12.23;;;8.05;;
73869;SDS011;64924;42.140;24.762;2023-04-24T00:18:19;14.98;;;7.70;;
73869;SDS011;64924;42.140;24.762;2023-04-24T00:20:45;15.25;;;8.68;;
73869;SDS011;64924;42.140;24.762;2023-04-24T00:23:11;13.32;;;7.40;;
73869;SDS011;64924;42.140;24.762;2023-04-24T00:25:37;15.95;;;8.93;;
73869;SDS011;64924;42.140;24.762;2023-04-24T00:28:03;14.50;;;8.52;;
73869;SDS011;64924;42.140;24.762;2023-04-24T00:30:29;16.23;;;8.35;;
73869;SDS011;64924;42.140;24.762;2023-04-24T00:32:54;13.32;;;8.10;;
73869;SDS011;64924;42.140;24.762;2023-04-24T00:35:20;16.00;;;9.00;;
73869;SDS011;64924;42.140;24.762;2023-04-24T00:37:45;20.63;;;8.60;;
73869;SDS011;64924;42.140;24.762;2023-04-24T00:40:11;14.82;;;7.32;;
73869;SDS011;64924;42.140;24.762;2023-04-24T00:42:37;17.48;;;7.85;;
73869;SDS011;64924;42.140;24.762;2023-04-24T00:45:03;15.52;;;7.82;;
73869;SDS011;64924;42.140;24.762;2023-04-24T00:47:30;12.02;;;7.75;;
73869;SDS011;64924;42.140;24.762;2023-04-24T00:49:56;30.90;;;9.55;;
73869;SDS011;64924;42.140;24.762;2023-04-24T00:52:22;18.75;;;8.07;;
73869;SDS011;64924;42.140;24.762;2023-04-24T00:54:49;14.63;;;7.93;;
73869;SDS011;64924;42.140;24.762;2023-04-24T00:57:15;13.35;;;8.70;;
73869;SDS011;64924;42.140;24.762;2023-04-24T00:59:41;16.17;;;8.23;;
73869;SDS011;64924;42.140;24.762;2023-04-24T01:02:10;14.15;;;7.97;;
73869;SDS011;64924;42.140;24.762;2023-04-24T01:04:36;16.83;;;8.98;;
73869;SDS011;64924;42.140;24.762;2023-04-24T01:07:03;14.32;;;8.45;;
73869;SDS011;64924;42.140;24.762;2023-04-24T01:09:34;14.93;;;8.98;;
73869;SDS011;64924;42.140;24.762;2023-04-24T01:12:00;15.32;;;8.98;;
73869;SDS011;64924;42.140;24.762;2023-04-24T01:14:26;15.05;;;8.57;;
73869;SDS011;64924;42.140;24.762;2023-04-24T01:16:52;16.83;;;9.25;;
73869;SDS011;64924;42.140;24.762;2023-04-24T01:19:17;13.02;;;8.25;;
73869;SDS011;64924;42.140;24.762;2023-04-24T01:21:44;14.05;;;8.75;;
73869;SDS011;64924;42.140;24.762;2023-04-24T01:24:15;17.13;;;9.52;;
73869;SDS011;64924;42.140;24.762;2023-04-24T01:26:41;17.45;;;9.30;;
73869;SDS011;64924;42.140;24.762;2023-04-24T01:29:06;18.52;;;8.70;;
73869;SDS011;64924;42.140;24.762;2023-04-24T01:31:33;14.00;;;9.32;;
73869;SDS011;64924;42.140;24.762;2023-04-24T01:33:59;12.82;;;9.13;;
73869;SDS011;64924;42.140;24.762;2023-04-24T01:36:25;15.27;;;9.05;;
73869;SDS011;64924;42.140;24.762;2023-04-24T01:38:52;15.65;;;9.70;;
73869;SDS011;64924;42.140;24.762;2023-04-24T01:41:17;17.55;;;9.30;;
73869;SDS011;64924;42.140;24.762;2023-04-24T01:43:44;15.55;;;8.80;;
73869;SDS011;64924;42.140;24.762;2023-04-24T01:46:09;16.88;;;9.10;;
73869;SDS011;64924;42.140;24.762;2023-04-24T01:48:35;16.45;;;9.35;;
73869;SDS011;64924;42.140;24.762;2023-04-24T01:51:00;17.05;;;9.18;;
73869;SDS011;64924;42.140;24.762;2023-04-24T01:53:26;15.75;;;8.90;;
73869;SDS011;64924;42.140;24.762;2023-04-24T01:55:51;12.70;;;9.10;;
73869;SDS011;64924;42.140;24.762;2023-04-24T01:58:17;13.35;;;10.50;;
73869;SDS011;64924;42.140;24.762;2023-04-24T02:00:42;17.73;;;9.88;;
73869;SDS011;64924;42.140;24.762;2023-04-24T02:03:08;14.82;;;10.23;;
73869;SDS011;64924;42.140;24.762;2023-04-24T02:05:33;16.98;;;10.80;;
73869;SDS011;64924;42.140;24.762;2023-04-24T02:07:59;15.85;;;10.02;;
73869;SDS011;64924;42.140;24.762;2023-04-24T02:10:24;18.15;;;10.93;;
73869;SDS011;64924;42.140;24.762;2023-04-24T02:12:50;20.33;;;9.68;;
73869;SDS011;64924;42.140;24.762;2023-04-24T02:15:16;16.20;;;10.43;;
73869;SDS011;64924;42.140;24.762;2023-04-24T02:17:42;15.80;;;10.27;;
73869;SDS011;64924;42.140;24.762;2023-04-24T02:20:08;18.00;;;10.07;;
73869;SDS011;64924;42.140;24.762;2023-04-24T02:22:33;13.23;;;8.93;;
73869;SDS011;64924;42.140;24.762;2023-04-24T02:24:59;16.52;;;10.25;;
73869;SDS011;64924;42.140;24.762;2023-04-24T02:27:25;14.55;;;9.52;;
73869;SDS011;64924;42.140;24.762;2023-04-24T02:29:50;18.55;;;9.25;;
73869;SDS011;64924;42.140;24.762;2023-04-24T02:32:16;17.48;;;10.38;;
73869;SDS011;64924;42.140;24.762;2023-04-24T02:34:41;18.40;;;10.07;;
73869;SDS011;64924;42.140;24.762;2023-04-24T02:37:07;17.60;;;10.73;;
73869;SDS011;64924;42.140;24.762;2023-04-24T02:39:32;18.15;;;10.23;;
73869;SDS011;64924;42.140;24.762;2023-04-24T02:41:58;16.67;;;9.80;;
73869;SDS011;64924;42.140;24.762;2023-04-24T02:44:23;20.98;;;10.63;;
73869;SDS011;64924;42.140;24.762;2023-04-24T02:46:48;19.98;;;11.45;;
73869;SDS011;64924;42.140;24.762;2023-04-24T02:49:14;17.30;;;11.27;;
73869;SDS011;64924;42.140;24.762;2023-04-24T02:51:40;20.08;;;10.38;;
73869;SDS011;64924;42.140;24.762;2023-04-24T02:54:07;17.23;;;9.70;;
73869;SDS011;64924;42.140;24.762;2023-04-24T02:56:35;16.92;;;10.35;;
73869;SDS011;64924;42.140;24.762;2023-04-24T02:59:01;22.02;;;10.65;;
73869;SDS011;64924;42.140;24.762;2023-04-24T03:01:27;22.58;;;10.77;;
73869;SDS011;64924;42.140;24.762;2023-04-24T03:03:52;20.52;;;10.65;;
73869;SDS011;64924;42.140;24.762;2023-04-24T03:06:17;18.40;;;10.32;;
73869;SDS011;64924;42.140;24.762;2023-04-24T03:08:43;19.10;;;10.23;;
73869;SDS011;64924;42.140;24.762;2023-04-24T03:11:08;14.85;;;10.32;;
73869;SDS011;64924;42.140;24.762;2023-04-24T03:13:34;15.35;;;11.00;;
73869;SDS011;64924;42.140;24.762;2023-04-24T03:15:59;18.65;;;10.82;;
73869;SDS011;64924;42.140;24.762;2023-04-24T03:18:25;19.38;;;11.90;;
73869;SDS011;64924;42.140;24.762;2023-04-24T03:20:50;19.45;;;10.85;;
73869;SDS011;64924;42.140;24.762;2023-04-24T03:23:16;18.50;;;10.93;;
73869;SDS011;64924;42.140;24.762;2023-04-24T03:25:41;17.73;;;10.60;;
73869;SDS011;64924;42.140;24.762;2023-04-24T03:28:08;20.13;;;11.52;;
73869;SDS011;64924;42.140;24.762;2023-04-24T03:30:33;17.67;;;11.30;;
73869;SDS011;64924;42.140;24.762;2023-04-24T03:32:59;18.98;;;10.98;;
73869;SDS011;64924;42.140;24.762;2023-04-24T03:35:25;21.42;;;11.93;;
73869;SDS011;64924;42.140;24.762;2023-04-24T03:37:51;20.83;;;11.85;;
73869;SDS011;64924;42.140;24.762;2023-04-24T03:40:16;22.17;;;11.00;;
73869;SDS011;64924;42.140;24.762;2023-04-24T03:42:42;16.80;;;11.20;;
73869;SDS011;64924;42.140;24.762;2023-04-24T03:45:07;18.52;;;10.88;;
73869;SDS011;64924;42.140;24.762;2023-04-24T03:47:33;15.20;;;10.13;;
73869;SDS011;64924;42.140;24.762;2023-04-24T03:49:59;19.05;;;10.25;;
73869;SDS011;64924;42.140;24.762;2023-04-24T03:52:24;22.30;;;10.50;;
73869;SDS011;64924;42.140;24.762;2023-04-24T03:54:50;18.15;;;10.85;;
73869;SDS011;64924;42.140;24.762;2023-04-24T03:57:15;20.70;;;10.52;;
73869;SDS011;64924;42.140;24.762;2023-04-24T03:59:41;18.17;;;10.10;;
73869;SDS011;64924;42.140;24.762;2023-04-24T04:02:06;16.63;;;10.93;;
73869;SDS011;64924;42.140;24.762;2023-04-24T04:04:32;22.35;;;10.45;;
73869;SDS011;64924;42.140;24.762;2023-04-24T04:06:58;16.85;;;10.27;;
73869;SDS011;64924;42.140;24.762;2023-04-24T04:09:26;22.27;;;10.27;;
73869;SDS011;64924;42.140;24.762;2023-04-24T04:11:52;23.35;;;10.55;;
73869;SDS011;64924;42.140;24.762;2023-04-24T04:14:17;16.80;;;9.27;;
73869;SDS011;64924;42.140;24.762;2023-04-24T04:16:42;16.38;;;9.57;;
73869;SDS011;64924;42.140;24.762;2023-04-24T04:19:08;21.45;;;9.75;;
73869;SDS011;64924;42.140;24.762;2023-04-24T04:21:33;14.63;;;9.32;;
73869;SDS011;64924;42.140;24.762;2023-04-24T04:23:59;12.52;;;8.80;;
73869;SDS011;64924;42.140;24.762;2023-04-24T04:26:24;22.23;;;9.85;;
73869;SDS011;64924;42.140;24.762;2023-04-24T04:28:51;21.45;;;9.73;;
73869;SDS011;64924;42.140;24.762;2023-04-24T04:31:17;15.90;;;8.55;;
73869;SDS011;64924;42.140;24.762;2023-04-24T04:33:43;20.45;;;9.02;;
73869;SDS011;64924;42.140;24.762;2023-04-24T04:36:09;18.00;;;9.10;;
73869;SDS011;64924;42.140;24.762;2023-04-24T04:38:34;14.00;;;9.65;;
73869;SDS011;64924;42.140;24.762;2023-04-24T04:41:00;14.32;;;8.73;;
73869;SDS011;64924;42.140;24.762;2023-04-24T04:43:25;22.42;;;9.55;;
73869;SDS011;64924;42.140;24.762;2023-04-24T04:45:51;28.13;;;10.05;;
73869;SDS011;64924;42.140;24.762;2023-04-24T04:48:17;16.20;;;8.63;;
73869;SDS011;64924;42.140;24.762;2023-04-24T04:50:43;26.98;;;9.93;;
73869;SDS011;64924;42.140;24.762;2023-04-24T04:53:09;15.52;;;9.05;;
73869;SDS011;64924;42.140;24.762;2023-04-24T04:55:35;17.88;;;10.32;;
73869;SDS011;64924;42.140;24.762;2023-04-24T04:58:01;18.65;;;9.45;;
73869;SDS011;64924;42.140;24.762;2023-04-24T05:00:27;16.90;;;9.23;;
73869;SDS011;64924;42.140;24.762;2023-04-24T05:02:54;20.88;;;9.75;;
73869;SDS011;64924;42.140;24.762;2023-04-24T05:05:19;18.15;;;8.35;;
73869;SDS011;64924;42.140;24.762;2023-04-24T05:07:45;19.40;;;9.48;;
73869;SDS011;64924;42.140;24.762;2023-04-24T05:10:11;18.05;;;9.73;;
73869;SDS011;64924;42.140;24.762;2023-04-24T05:12:36;24.42;;;8.88;;
73869;SDS011;64924;42.140;24.762;2023-04-24T05:15:02;18.83;;;9.10;;
73869;SDS011;64924;42.140;24.762;2023-04-24T05:17:28;13.32;;;8.38;;
73869;SDS011;64924;42.140;24.762;2023-04-24T05:19:54;17.58;;;10.02;;
73869;SDS011;64924;42.140;24.762;2023-04-24T05:22:19;19.13;;;10.77;;
73869;SDS011;64924;42.140;24.762;2023-04-24T05:24:46;17.75;;;9.95;;
73869;SDS011;64924;42.140;24.762;2023-04-24T05:27:12;19.02;;;9.75;;
73869;SDS011;64924;42.140;24.762;2023-04-24T05:29:37;23.42;;;11.20;;
73869;SDS011;64924;42.140;24.762;2023-04-24T05:32:03;18.02;;;9.68;;
73869;SDS011;64924;42.140;24.762;2023-04-24T05:34:28;26.02;;;10.35;;
73869;SDS011;64924;42.140;24.762;2023-04-24T05:36:54;17.85;;;9.18;;
73869;SDS011;64924;42.140;24.762;2023-04-24T05:39:19;20.13;;;9.50;;
73869;SDS011;64924;42.140;24.762;2023-04-24T05:41:45;17.67;;;10.68;;
73869;SDS011;64924;42.140;24.762;2023-04-24T05:44:11;18.95;;;10.23;;
73869;SDS011;64924;42.140;24.762;2023-04-24T05:46:36;17.00;;;10.48;;
73869;SDS011;64924;42.140;24.762;2023-04-24T05:49:02;14.73;;;9.35;;
73869;SDS011;64924;42.140;24.762;2023-04-24T05:51:28;21.48;;;9.52;;
73869;SDS011;64924;42.140;24.762;2023-04-24T05:53:53;18.30;;;9.00;;
73869;SDS011;64924;42.140;24.762;2023-04-24T05:56:19;17.00;;;8.68;;
73869;SDS011;64924;42.140;24.762;2023-04-24T05:58:45;22.30;;;7.88;;
73869;SDS011;64924;42.140;24.762;2023-04-24T06:01:11;21.73;;;8.50;;
73869;SDS011;64924;42.140;24.762;2023-04-24T06:03:39;16.15;;;8.10;;
73869;SDS011;64924;42.140;24.762;2023-04-24T06:06:06;19.25;;;9.25;;
73869;SDS011;64924;42.140;24.762;2023-04-24T06:08:31;13.90;;;7.97;;
73869;SDS011;64924;42.140;24.762;2023-04-24T06:10:57;21.17;;;8.68;;
73869;SDS011;64924;42.140;24.762;2023-04-24T06:13:23;11.93;;;7.82;;
73869;SDS011;64924;42.140;24.762;2023-04-24T06:15:48;17.73;;;9.13;;
73869;SDS011;64924;42.140;24.762;2023-04-24T06:18:14;18.48;;;7.93;;
73869;SDS011;64924;42.140;24.762;2023-04-24T06:20:40;14.88;;;8.20;;
73869;SDS011;64924;42.140;24.762;2023-04-24T06:23:05;12.93;;;7.70;;
73869;SDS011;64924;42.140;24.762;2023-04-24T06:25:31;9.73;;;7.00;;
73869;SDS011;64924;42.140;24.762;2023-04-24T06:27:56;13.32;;;6.50;;
73869;SDS011;64924;42.140;24.762;2023-04-24T06:30:22;10.45;;;6.45;;
73869;SDS011;64924;42.140;24.762;2023-04-24T06:32:48;18.05;;;6.70;;
73869;SDS011;64924;42.140;24.762;2023-04-24T06:35:13;16.25;;;7.13;;
73869;SDS011;64924;42.140;24.762;2023-04-24T06:37:39;10.65;;;6.40;;
73869;SDS011;64924;42.140;24.762;2023-04-24T06:40:06;12.48;;;5.85;;
73869;SDS011;64924;42.140;24.762;2023-04-24T06:42:32;16.88;;;6.07;;
73869;SDS011;64924;42.140;24.762;2023-04-24T06:44:57;9.07;;;6.32;;
73869;SDS011;64924;42.140;24.762;2023-04-24T06:47:23;12.15;;;6.32;;
73869;SDS011;64924;42.140;24.762;2023-04-24T06:49:49;13.23;;;6.65;;
73869;SDS011;64924;42.140;24.762;2023-04-24T06:52:16;13.68;;;6.25;;
73869;SDS011;64924;42.140;24.762;2023-04-24T06:54:41;10.80;;;6.95;;
73869;SDS011;64924;42.140;24.762;2023-04-24T06:57:07;13.70;;;6.97;;
73869;SDS011;64924;42.140;24.762;2023-04-24T06:59:33;12.30;;;6.43;;
73869;SDS011;64924;42.140;24.762;2023-04-24T07:01:59;16.17;;;7.75;;
73869;SDS011;64924;42.140;24.762;2023-04-24T07:04:25;16.30;;;7.38;;
73869;SDS011;64924;42.140;24.762;2023-04-24T07:06:51;13.52;;;6.80;;
73869;SDS011;64924;42.140;24.762;2023-04-24T07:09:19;11.93;;;7.15;;
73869;SDS011;64924;42.140;24.762;2023-04-24T07:11:45;13.32;;;6.45;;
73869;SDS011;64924;42.140;24.762;2023-04-24T07:14:11;12.13;;;6.50;;
73869;SDS011;64924;42.140;24.762;2023-04-24T07:16:37;12.27;;;6.78;;
73869;SDS011;64924;42.140;24.762;2023-04-24T07:19:03;11.98;;;6.45;;
73869;SDS011;64924;42.140;24.762;2023-04-24T07:21:28;11.40;;;6.47;;
73869;SDS011;64924;42.140;24.762;2023-04-24T07:23:54;8.55;;;6.88;;
73869;SDS011;64924;42.140;24.762;2023-04-24T07:26:19;10.07;;;6.07;;
73869;SDS011;64924;42.140;24.762;2023-04-24T07:28:45;14.35;;;6.85;;
73869;SDS011;64924;42.140;24.762;2023-04-24T07:31:11;11.07;;;6.65;;
73869;SDS011;64924;42.140;24.762;2023-04-24T07:33:37;16.25;;;6.45;;
73869;SDS011;64924;42.140;24.762;2023-04-24T07:36:02;10.02;;;6.22;;
73869;SDS011;64924;42.140;24.762;2023-04-24T07:38:29;19.60;;;8.23;;
73869;SDS011;64924;42.140;24.762;2023-04-24T07:40:55;11.88;;;7.25;;
73869;SDS011;64924;42.140;24.762;2023-04-24T07:43:20;13.73;;;7.78;;
73869;SDS011;64924;42.140;24.762;2023-04-24T07:45:46;10.65;;;6.68;;
73869;SDS011;64924;42.140;24.762;2023-04-24T07:48:12;13.93;;;6.95;;
73869;SDS011;64924;42.140;24.762;2023-04-24T07:50:41;13.83;;;7.47;;
73869;SDS011;64924;42.140;24.762;2023-04-24T07:53:07;8.50;;;6.50;;
73869;SDS011;64924;42.140;24.762;2023-04-24T07:55:32;12.40;;;7.07;;
73869;SDS011;64924;42.140;24.762;2023-04-24T07:57:58;12.55;;;7.13;;
73869;SDS011;64924;42.140;24.762;2023-04-24T08:00:23;11.50;;;6.97;;
73869;SDS011;64924;42.140;24.762;2023-04-24T08:02:48;14.25;;;8.13;;
73869;SDS011;64924;42.140;24.762;2023-04-24T08:05:14;15.20;;;8.43;;
73869;SDS011;64924;42.140;24.762;2023-04-24T08:07:39;10.70;;;7.40;;
73869;SDS011;64924;42.140;24.762;2023-04-24T08:10:07;14.13;;;8.27;;
73869;SDS011;64924;42.140;24.762;2023-04-24T08:12:35;15.50;;;7.60;;
73869;SDS011;64924;42.140;24.762;2023-04-24T08:15:00;14.32;;;7.50;;
73869;SDS011;64924;42.140;24.762;2023-04-24T08:17:26;15.20;;;7.78;;
73869;SDS011;64924;42.140;24.762;2023-04-24T08:19:51;16.08;;;7.35;;
73869;SDS011;64924;42.140;24.762;2023-04-24T08:22:18;11.43;;;7.00;;
73869;SDS011;64924;42.140;24.762;2023-04-24T08:24:43;10.18;;;6.60;;
73869;SDS011;64924;42.140;24.762;2023-04-24T08:27:09;15.45;;;7.82;;
73869;SDS011;64924;42.140;24.762;2023-04-24T08:29:35;9.32;;;7.03;;
73869;SDS011;64924;42.140;24.762;2023-04-24T08:32:01;13.07;;;7.70;;
73869;SDS011;64924;42.140;24.762;2023-04-24T08:34:27;10.60;;;7.25;;
73869;SDS011;64924;42.140;24.762;2023-04-24T08:36:52;10.50;;;7.05;;
73869;SDS011;64924;42.140;24.762;2023-04-24T08:39:18;9.68;;;6.90;;
73869;SDS011;64924;42.140;24.762;2023-04-24T08:41:44;15.85;;;7.80;;
73869;SDS011;64924;42.140;24.762;2023-04-24T08:44:10;12.02;;;6.82;;
73869;SDS011;64924;42.140;24.762;2023-04-24T08:46:37;15.32;;;7.05;;
73869;SDS011;64924;42.140;24.762;2023-04-24T08:49:05;9.95;;;6.90;;
73869;SDS011;64924;42.140;24.762;2023-04-24T08:51:31;12.73;;;7.97;;
73869;SDS011;64924;42.140;24.762;2023-04-24T08:53:57;12.18;;;6.45;;
73869;SDS011;64924;42.140;24.762;2023-04-24T08:56:22;14.73;;;6.38;;
73869;SDS011;64924;42.140;24.762;2023-04-24T08:58:53;12.40;;;6.65;;
73869;SDS011;64924;42.140;24.762;2023-04-24T09:01:19;10.45;;;7.68;;
73869;SDS011;64924;42.140;24.762;2023-04-24T09:03:46;11.40;;;7.15;;
73869;SDS011;64924;42.140;24.762;2023-04-24T09:06:13;11.98;;;6.60;;
73869;SDS011;64924;42.140;24.762;2023-04-24T09:08:41;12.50;;;7.15;;
73869;SDS011;64924;42.140;24.762;2023-04-24T09:11:08;11.25;;;7.78;;
73869;SDS011;64924;42.140;24.762;2023-04-24T09:13:35;10.20;;;6.47;;
73869;SDS011;64924;42.140;24.762;2023-04-24T09:16:00;12.82;;;7.35;;
73869;SDS011;64924;42.140;24.762;2023-04-24T09:18:26;9.93;;;7.38;;
73869;SDS011;64924;42.140;24.762;2023-04-24T09:20:59;8.90;;;6.85;;
73869;SDS011;64924;42.140;24.762;2023-04-24T09:23:26;9.52;;;6.80;;
73869;SDS011;64924;42.140;24.762;2023-04-24T09:25:56;13.80;;;7.70;;
73869;SDS011;64924;42.140;24.762;2023-04-24T09:28:40;10.25;;;6.90;;
73869;SDS011;64924;42.140;24.762;2023-04-24T09:31:12;9.40;;;6.78;;
73869;SDS011;64924;42.140;24.762;2023-04-24T09:33:39;11.05;;;7.75;;
73869;SDS011;64924;42.140;24.762;2023-04-24T09:36:05;9.95;;;8.68;;
73869;SDS011;64924;42.140;24.762;2023-04-24T09:40:59;16.48;;;9.32;;
73869;SDS011;64924;42.140;24.762;2023-04-24T09:43:26;15.60;;;9.73;;
73869;SDS011;64924;42.140;24.762;2023-04-24T09:45:52;15.00;;;9.77;;
73869;SDS011;64924;42.140;24.762;2023-04-24T09:48:29;17.85;;;11.30;;
73869;SDS011;64924;42.140;24.762;2023-04-24T09:50:56;13.85;;;10.13;;
73869;SDS011;64924;42.140;24.762;2023-04-24T09:53:25;13.32;;;10.10;;
73869;SDS011;64924;42.140;24.762;2023-04-24T09:55:51;16.63;;;10.48;;
73869;SDS011;64924;42.140;24.762;2023-04-24T09:58:18;14.65;;;7.90;;
73869;SDS011;64924;42.140;24.762;2023-04-24T10:00:49;18.73;;;10.02;;
73869;SDS011;64924;42.140;24.762;2023-04-24T10:03:18;14.70;;;9.10;;
73869;SDS011;64924;42.140;24.762;2023-04-24T10:05:44;11.50;;;8.90;;
73869;SDS011;64924;42.140;24.762;2023-04-24T10:08:11;11.80;;;9.73;;
73869;SDS011;64924;42.140;24.762;2023-04-24T10:10:39;15.45;;;10.02;;
73869;SDS011;64924;42.140;24.762;2023-04-24T10:13:09;13.05;;;8.88;;
73869;SDS011;64924;42.140;24.762;2023-04-24T10:15:36;13.50;;;7.35;;
73869;SDS011;64924;42.140;24.762;2023-04-24T10:18:04;11.32;;;8.55;;
73869;SDS011;64924;42.140;24.762;2023-04-24T10:20:31;10.85;;;8.70;;
73869;SDS011;64924;42.140;24.762;2023-04-24T10:22:58;9.85;;;6.75;;
73869;SDS011;64924;42.140;24.762;2023-04-24T10:25:28;10.60;;;7.10;;
73869;SDS011;64924;42.140;24.762;2023-04-24T10:27:55;13.80;;;7.22;;
73869;SDS011;64924;42.140;24.762;2023-04-24T10:30:26;10.23;;;6.57;;
73869;SDS011;64924;42.140;24.762;2023-04-24T10:32:52;9.55;;;7.07;;
73869;SDS011;64924;42.140;24.762;2023-04-24T10:35:19;12.68;;;6.95;;
73869;SDS011;64924;42.140;24.762;2023-04-24T10:37:53;7.72;;;6.22;;
73869;SDS011;64924;42.140;24.762;2023-04-24T10:40:25;11.30;;;6.78;;
73869;SDS011;64924;42.140;24.762;2023-04-24T10:42:53;10.48;;;7.57;;
73869;SDS011;64924;42.140;24.762;2023-04-24T10:45:19;10.50;;;6.28;;
73869;SDS011;64924;42.140;24.762;2023-04-24T10:47:56;10.30;;;6.93;;
73869;SDS011;64924;42.140;24.762;2023-04-24T10:53:14;11.82;;;6.50;;
73869;SDS011;64924;42.140;24.762;2023-04-24T10:55:43;8.80;;;5.93;;
73869;SDS011;64924;42.140;24.762;2023-04-24T10:58:13;10.75;;;6.57;;
73869;SDS011;64924;42.140;24.762;2023-04-24T11:00:41;13.50;;;6.78;;
73869;SDS011;64924;42.140;24.762;2023-04-24T11:06:00;9.88;;;6.70;;
73869;SDS011;64924;42.140;24.762;2023-04-24T11:08:40;10.88;;;6.28;;
73869;SDS011;64924;42.140;24.762;2023-04-24T11:11:09;10.40;;;6.97;;
73869;SDS011;64924;42.140;24.762;2023-04-24T11:14:04;9.95;;;6.28;;
73869;SDS011;64924;42.140;24.762;2023-04-24T11:16:32;12.75;;;6.55;;
73869;SDS011;64924;42.140;24.762;2023-04-24T11:19:09;11.35;;;6.30;;
73869;SDS011;64924;42.140;24.762;2023-04-24T11:26:53;9.35;;;6.13;;
73869;SDS011;64924;42.140;24.762;2023-04-24T11:29:20;9.55;;;5.90;;
73869;SDS011;64924;42.140;24.762;2023-04-24T11:31:46;10.20;;;5.80;;
73869;SDS011;64924;42.140;24.762;2023-04-24T11:34:15;9.95;;;5.63;;
73869;SDS011;64924;42.140;24.762;2023-04-24T11:36:47;7.72;;;5.28;;
73869;SDS011;64924;42.140;24.762;2023-04-24T11:39:13;10.68;;;5.45;;
73869;SDS011;64924;42.140;24.762;2023-04-24T11:41:40;9.13;;;5.53;;
73869;SDS011;64924;42.140;24.762;2023-04-24T11:44:06;10.68;;;5.30;;
73869;SDS011;64924;42.140;24.762;2023-04-24T11:46:33;6.47;;;5.05;;
73869;SDS011;64924;42.140;24.762;2023-04-24T11:48:59;7.72;;;5.28;;
73869;SDS011;64924;42.140;24.762;2023-04-24T11:51:26;10.00;;;6.07;;
73869;SDS011;64924;42.140;24.762;2023-04-24T11:53:55;9.15;;;5.80;;
73869;SDS011;64924;42.140;24.762;2023-04-24T11:56:22;10.57;;;5.07;;
73869;SDS011;64924;42.140;24.762;2023-04-24T11:58:48;8.50;;;5.30;;
73869;SDS011;64924;42.140;24.762;2023-04-24T12:01:14;8.93;;;5.00;;
73869;SDS011;64924;42.140;24.762;2023-04-24T12:03:41;15.48;;;5.57;;
73869;SDS011;64924;42.140;24.762;2023-04-24T12:06:09;8.95;;;5.43;;
73869;SDS011;64924;42.140;24.762;2023-04-24T12:08:37;10.30;;;5.85;;
73869;SDS011;64924;42.140;24.762;2023-04-24T12:11:03;6.63;;;5.13;;
73869;SDS011;64924;42.140;24.762;2023-04-24T12:13:32;9.57;;;5.40;;
73869;SDS011;64924;42.140;24.762;2023-04-24T12:15:58;7.75;;;5.18;;
73869;SDS011;64924;42.140;24.762;2023-04-24T12:18:23;14.70;;;5.95;;
73869;SDS011;64924;42.140;24.762;2023-04-24T12:20:49;9.18;;;6.10;;
73869;SDS011;64924;42.140;24.762;2023-04-24T12:23:15;9.15;;;5.32;;
73869;SDS011;64924;42.140;24.762;2023-04-24T12:25:42;10.55;;;4.88;;
73869;SDS011;64924;42.140;24.762;2023-04-24T12:28:09;7.20;;;5.13;;
73869;SDS011;64924;42.140;24.762;2023-04-24T12:30:48;7.50;;;5.05;;
73869;SDS011;64924;42.140;24.762;2023-04-24T12:33:21;7.28;;;5.07;;
73869;SDS011;64924;42.140;24.762;2023-04-24T12:35:47;6.70;;;5.50;;
73869;SDS011;64924;42.140;24.762;2023-04-24T12:38:15;6.88;;;5.00;;
73869;SDS011;64924;42.140;24.762;2023-04-24T12:40:41;10.95;;;4.80;;
73869;SDS011;64924;42.140;24.762;2023-04-24T12:43:19;7.45;;;4.95;;
73869;SDS011;64924;42.140;24.762;2023-04-24T12:45:48;6.93;;;5.45;;
73869;SDS011;64924;42.140;24.762;2023-04-24T12:48:13;6.80;;;4.97;;
73869;SDS011;64924;42.140;24.762;2023-04-24T12:50:39;12.55;;;5.07;;
73869;SDS011;64924;42.140;24.762;2023-04-24T12:53:05;8.23;;;4.50;;
73869;SDS011;64924;42.140;24.762;2023-04-24T12:55:31;7.63;;;4.65;;
73869;SDS011;64924;42.140;24.762;2023-04-24T12:57:57;6.93;;;4.97;;
73869;SDS011;64924;42.140;24.762;2023-04-24T13:00:23;8.13;;;5.07;;
73869;SDS011;64924;42.140;24.762;2023-04-24T13:02:48;6.53;;;4.50;;
73869;SDS011;64924;42.140;24.762;2023-04-24T13:05:14;12.50;;;5.40;;
73869;SDS011;64924;42.140;24.762;2023-04-24T13:07:40;7.82;;;5.05;;
73869;SDS011;64924;42.140;24.762;2023-04-24T13:10:06;4.55;;;3.38;;
73869;SDS011;64924;42.140;24.762;2023-04-24T13:12:32;11.32;;;5.40;;
73869;SDS011;64924;42.140;24.762;2023-04-24T13:14:58;5.78;;;4.45;;
73869;SDS011;64924;42.140;24.762;2023-04-24T13:17:23;9.50;;;4.80;;
73869;SDS011;64924;42.140;24.762;2023-04-24T13:19:49;5.05;;;4.30;;
73869;SDS011;64924;42.140;24.762;2023-04-24T13:22:16;11.48;;;4.47;;
73869;SDS011;64924;42.140;24.762;2023-04-24T13:24:44;6.82;;;4.95;;
73869;SDS011;64924;42.140;24.762;2023-04-24T13:27:10;9.60;;;5.07;;
73869;SDS011;64924;42.140;24.762;2023-04-24T13:29:36;9.77;;;5.45;;
73869;SDS011;64924;42.140;24.762;2023-04-24T13:32:02;8.65;;;5.20;;
73869;SDS011;64924;42.140;24.762;2023-04-24T13:34:28;8.82;;;4.68;;
73869;SDS011;64924;42.140;24.762;2023-04-24T13:36:55;10.32;;;4.82;;
73869;SDS011;64924;42.140;24.762;2023-04-24T13:39:22;11.85;;;5.10;;
73869;SDS011;64924;42.140;24.762;2023-04-24T13:41:48;11.65;;;5.20;;
73869;SDS011;64924;42.140;24.762;2023-04-24T13:44:14;6.68;;;4.82;;
73869;SDS011;64924;42.140;24.762;2023-04-24T13:46:41;7.05;;;4.72;;
73869;SDS011;64924;42.140;24.762;2023-04-24T13:49:08;6.82;;;4.78;;
73869;SDS011;64924;42.140;24.762;2023-04-24T13:51:34;10.77;;;5.25;;
73869;SDS011;64924;42.140;24.762;2023-04-24T13:53:59;5.03;;;4.55;;
73869;SDS011;64924;42.140;24.762;2023-04-24T13:56:25;7.03;;;5.13;;
73869;SDS011;64924;42.140;24.762;2023-04-24T13:58:51;9.23;;;4.53;;
73869;SDS011;64924;42.140;24.762;2023-04-24T14:01:16;7.30;;;4.50;;
73869;SDS011;64924;42.140;24.762;2023-04-24T14:03:45;11.77;;;4.95;;
73869;SDS011;64924;42.140;24.762;2023-04-24T14:06:11;6.68;;;4.43;;
73869;SDS011;64924;42.140;24.762;2023-04-24T14:08:36;8.30;;;4.28;;
73869;SDS011;64924;42.140;24.762;2023-04-24T14:11:02;10.27;;;4.07;;
73869;SDS011;64924;42.140;24.762;2023-04-24T14:13:27;10.60;;;4.40;;
73869;SDS011;64924;42.140;24.762;2023-04-24T14:15:53;10.32;;;4.43;;
73869;SDS011;64924;42.140;24.762;2023-04-24T14:18:19;5.10;;;3.90;;
73869;SDS011;64924;42.140;24.762;2023-04-24T14:20:45;6.93;;;4.78;;
73869;SDS011;64924;42.140;24.762;2023-04-24T14:23:11;5.22;;;4.43;;
73869;SDS011;64924;42.140;24.762;2023-04-24T14:25:36;8.15;;;4.40;;
73869;SDS011;64924;42.140;24.762;2023-04-24T14:28:02;8.38;;;5.03;;
73869;SDS011;64924;42.140;24.762;2023-04-24T14:30:27;6.97;;;4.50;;